Pagrindinis puslapis
METAR-TAF:

METAR-TAF

Oro uostai :

Palangos oro uostas

Palanga, Lietuva

platuma: 55-55-12N, ilguma: 021-03E, Aukštis: 10 m

Dabartinis oras

Ataskaita buvo paskelbta 13 minutes, ne 02:50 UTC
Vėjas 3 kt iš Vakarų, svyruoja nuo Pietvakarių ir Šiaurės Vakarų
Temperatūra 18°C
Drėgmė 88%
Slėgis 1025 hPa
Matomumas 10 km arba daugiau
nėra debesų žemiau 1500 m ir nėra kamuolinių lietaus debesų

METAR: EYPA 240250Z 27003KT 230V320 CAVOK 18/16 Q1025

Laikas: 06:03 (03:03 UTC)

Prognozė

Ataskaita buvo paskelbta 4 valandos ir 3 minutes, ne 23:00 UTC
Prognozė galioja nuo 24 metu 00 UTC su 24 metu 24 UTC
Vėjas 5 kt nuo kintamojo kryptimis
Matomumas: 9000 m
Laikinai
nuo 24 metu 00 UTC su 24 metu 06 UTC
Matomumas: 3000 m
Išsisklaidę debesys ne aukštis 500 ft
Sekli rūkas, rūkana
Tapsmas
nuo 24 metu 07 UTC su 24 metu 08 UTC
Vėjas 15 kt iš Vakarų/Šiaurės Vakarų
Su prošvaistėmis ne aukštis 3000 ft

TAF: EYPA 232300Z 2400/2424 VRB05KT 9000 NSC TEMPO 2400/2406 3000 MIFG BR SCT005 BECMG 2407/2408 29015KT BKN030

Orai ataskaitas ir orų prognozės (METAR, TAF).

turimą stotys yra geltonos ir raudonos taškus žemėlapyje.

Perkelti pele per norėdami pamatyti stoties vardą.

Tada spustelėkite, norėdami matyti oro stebėjimo ir prognozės.

Norėdami pakeisti žemėlapį: spustelėkite ant žalios mygtukų su juodo kryžiaus žemyn,; žalią mygtuką su brūkšneliu, jei norite nutolinti; arba žalių rodyklių gretimoms žemėlapius.


METAR-TAF: